createdAt,value
2019-05-20T00:02:01.775Z,14.70
2019-05-20T00:04:33.661Z,14.70
2019-05-20T00:07:05.867Z,14.60
2019-05-20T00:09:37.945Z,14.50
2019-05-20T00:12:09.667Z,14.60
2019-05-20T00:14:40.380Z,14.50
2019-05-20T00:17:11.067Z,14.50
2019-05-20T00:19:41.779Z,14.50
2019-05-20T00:22:12.522Z,14.50
2019-05-20T00:24:43.797Z,14.40
2019-05-20T00:27:14.494Z,14.40
2019-05-20T00:29:45.185Z,14.40
2019-05-20T00:32:15.979Z,14.40
2019-05-20T00:34:46.740Z,14.40
2019-05-20T00:37:17.381Z,14.40
2019-05-20T00:39:48.051Z,14.30
2019-05-20T00:42:18.735Z,14.40
2019-05-20T00:44:49.398Z,14.30
2019-05-20T00:47:20.064Z,14.30
2019-05-20T00:49:50.766Z,14.30
2019-05-20T00:52:21.420Z,14.30
2019-05-20T00:54:52.156Z,14.30
2019-05-20T00:57:22.839Z,14.50
2019-05-20T00:59:53.644Z,14.40
2019-05-20T01:02:24.315Z,14.40
2019-05-20T01:04:55.046Z,14.40
2019-05-20T01:07:25.727Z,14.30
2019-05-20T01:09:56.452Z,14.30
2019-05-20T01:12:27.097Z,14.20
2019-05-20T01:14:58.220Z,14.10
2019-05-20T01:17:28.959Z,14.10
2019-05-20T01:19:59.670Z,14.10
2019-05-20T01:22:30.338Z,14.00
2019-05-20T01:25:01.079Z,14.00
2019-05-20T01:27:31.725Z,14.00
2019-05-20T01:30:02.808Z,14.00
2019-05-20T01:32:33.462Z,14.00
2019-05-20T01:35:04.370Z,13.90
2019-05-20T01:37:35.030Z,13.80
2019-05-20T01:40:07.392Z,13.80
2019-05-20T01:42:38.436Z,13.80
2019-05-20T01:45:10.484Z,13.70
2019-05-20T01:47:41.179Z,13.70
2019-05-20T01:50:12.060Z,13.70
2019-05-20T01:52:42.774Z,13.70
2019-05-20T01:55:14.251Z,13.70
2019-05-20T01:57:45.149Z,13.70
2019-05-20T02:00:17.321Z,13.70
2019-05-20T02:02:48.039Z,13.70
2019-05-20T02:05:18.743Z,13.50
2019-05-20T02:07:49.511Z,13.50
2019-05-20T02:10:20.443Z,13.50
2019-05-20T02:12:51.122Z,13.60
2019-05-20T02:15:31.763Z,13.60
2019-05-20T02:18:03.038Z,13.70
2019-05-20T02:20:33.735Z,13.70
2019-05-20T02:23:22.397Z,13.70
2019-05-20T02:25:53.098Z,13.60
2019-05-20T02:28:23.740Z,13.70
2019-05-20T02:30:56.915Z,13.70
2019-05-20T02:33:26.849Z,13.60
2019-05-20T02:35:58.240Z,13.60
2019-05-20T02:38:28.931Z,13.60
2019-05-20T02:40:59.897Z,13.40
2019-05-20T02:43:30.629Z,13.40
2019-05-20T02:46:01.397Z,13.40
2019-05-20T02:48:32.053Z,13.40
2019-05-20T02:51:03.047Z,13.50
2019-05-20T02:53:33.732Z,13.50
2019-05-20T02:56:04.589Z,13.40
2019-05-20T02:58:35.261Z,13.10
2019-05-20T03:01:05.979Z,12.90
2019-05-20T03:03:36.613Z,12.80
2019-05-20T03:06:07.287Z,12.80
2019-05-20T03:08:38.257Z,12.70
2019-05-20T03:11:09.015Z,12.70
2019-05-20T03:13:39.876Z,12.60
2019-05-20T03:16:10.581Z,12.60
2019-05-20T03:18:48.538Z,12.50
2019-05-20T03:21:57.644Z,12.60
2019-05-20T03:24:29.109Z,12.60
2019-05-20T03:27:00.241Z,12.70
2019-05-20T03:29:31.047Z,12.60
2019-05-20T03:32:01.826Z,12.70
2019-05-20T03:34:46.633Z,12.60
2019-05-20T03:37:05.030Z,12.50
2019-05-20T03:39:35.839Z,12.50
2019-05-20T03:42:06.702Z,12.50
2019-05-20T03:44:37.462Z,12.50
2019-05-20T03:47:08.177Z,12.60
2019-05-20T03:49:38.856Z,12.70
2019-05-20T03:52:09.487Z,12.80
2019-05-20T03:54:41.182Z,12.80
2019-05-20T03:57:11.876Z,12.90
2019-05-20T03:59:42.661Z,13.10
2019-05-20T04:02:13.355Z,13.30
2019-05-20T04:05:00.608Z,13.50
2019-05-20T04:07:17.412Z,13.70
2019-05-20T04:09:48.079Z,13.90
2019-05-20T04:12:18.796Z,14.00
2019-05-20T04:14:53.168Z,14.10
2019-05-20T04:17:24.004Z,14.10
2019-05-20T04:19:55.375Z,14.10
2019-05-20T04:22:26.160Z,14.20
2019-05-20T04:24:57.838Z,14.30
2019-05-20T04:27:30.006Z,14.40
2019-05-20T04:30:01.446Z,14.60
2019-05-20T04:32:32.743Z,14.70
2019-05-20T04:35:20.659Z,14.80
2019-05-20T04:37:36.517Z,15.00
2019-05-20T04:40:07.633Z,15.20
2019-05-20T04:42:38.523Z,15.40
2019-05-20T04:45:09.916Z,15.40
2019-05-20T04:47:40.668Z,15.40
2019-05-20T04:50:11.781Z,15.50
2019-05-20T04:52:43.947Z,15.80
2019-05-20T04:55:14.990Z,16.00
2019-05-20T04:57:45.951Z,16.30
2019-05-20T05:00:21.212Z,16.50
2019-05-20T05:02:51.988Z,16.90
2019-05-20T05:05:36.743Z,17.00
2019-05-20T05:07:55.173Z,17.20
2019-05-20T05:10:25.922Z,17.40
2019-05-20T05:12:56.895Z,17.70
2019-05-20T05:15:27.660Z,17.60
2019-05-20T05:17:58.681Z,18.00
2019-05-20T05:20:29.457Z,18.30
2019-05-20T05:23:10.877Z,18.40
2019-05-20T05:25:42.065Z,18.30
2019-05-20T05:28:12.827Z,18.30
2019-05-20T05:30:46.486Z,18.50
2019-05-20T05:33:17.202Z,18.50
2019-05-20T05:35:53.186Z,18.60
2019-05-20T05:38:20.370Z,18.40
2019-05-20T05:40:51.069Z,18.40
2019-05-20T05:43:21.780Z,18.60
2019-05-20T05:45:52.411Z,18.80
2019-05-20T05:48:23.706Z,19.30
2019-05-20T05:50:54.509Z,19.20
2019-05-20T05:53:25.258Z,19.30
2019-05-20T05:55:55.888Z,19.40
2019-05-20T05:58:26.546Z,19.60
2019-05-20T06:00:57.237Z,19.90
2019-05-20T06:03:28.025Z,20.00
2019-05-20T06:06:11.339Z,20.00
2019-05-20T06:08:31.968Z,19.80
2019-05-20T06:11:03.703Z,20.00
2019-05-20T06:13:34.718Z,20.20
2019-05-20T06:16:05.505Z,20.30
2019-05-20T06:18:36.961Z,20.60
2019-05-20T06:21:07.779Z,20.90
2019-05-20T06:23:39.319Z,21.00
2019-05-20T06:26:10.023Z,20.80
2019-05-20T06:28:40.744Z,20.60
2019-05-20T06:31:11.594Z,20.80
2019-05-20T06:33:43.189Z,20.30
2019-05-20T06:36:25.987Z,20.20
2019-05-20T06:39:08.358Z,20.40
2019-05-20T06:41:39.919Z,20.40
2019-05-20T06:44:10.670Z,20.50
2019-05-20T06:46:41.371Z,21.00
2019-05-20T06:49:12.124Z,20.80
2019-05-20T06:51:43.194Z,21.20
2019-05-20T06:54:13.891Z,21.20
2019-05-20T06:56:44.602Z,21.20
2019-05-20T06:59:15.424Z,21.20
2019-05-20T07:01:46.125Z,21.20
2019-05-20T07:04:16.936Z,21.40
2019-05-20T07:06:47.862Z,21.60
2019-05-20T07:09:18.608Z,21.40
2019-05-20T07:11:52.971Z,21.10
2019-05-20T07:14:21.863Z,21.00
2019-05-20T07:16:52.642Z,21.20
2019-05-20T07:19:23.389Z,21.20
2019-05-20T07:21:54.227Z,21.50
2019-05-20T07:24:24.999Z,21.80
2019-05-20T07:26:55.669Z,22.00
2019-05-20T07:29:26.466Z,22.00
2019-05-20T07:31:57.240Z,22.30
2019-05-20T07:34:28.033Z,22.50
2019-05-20T07:37:03.563Z,22.60
2019-05-20T07:39:32.140Z,22.20
2019-05-20T07:42:04.109Z,22.00
2019-05-20T07:44:34.844Z,22.40
2019-05-20T07:47:06.013Z,22.40
2019-05-20T07:49:36.781Z,22.70
2019-05-20T07:52:08.070Z,22.60
2019-05-20T07:54:40.515Z,22.60
2019-05-20T07:57:15.529Z,22.50
2019-05-20T07:59:50.794Z,22.50
2019-05-20T08:02:21.613Z,22.80
2019-05-20T08:04:52.376Z,23.00
2019-05-20T08:07:29.691Z,23.40
2019-05-20T08:09:55.516Z,23.40
2019-05-20T08:12:26.373Z,23.60
2019-05-20T08:14:57.086Z,23.40
2019-05-20T08:17:27.889Z,23.60
2019-05-20T08:19:58.563Z,23.80
2019-05-20T08:22:29.240Z,23.50
2019-05-20T08:24:59.892Z,23.10
2019-05-20T08:27:30.567Z,23.10
2019-05-20T08:30:01.799Z,23.30
2019-05-20T08:32:32.577Z,23.20
2019-05-20T08:35:03.235Z,23.40
2019-05-20T08:37:44.743Z,23.70
2019-05-20T08:40:06.970Z,24.20
2019-05-20T08:42:37.809Z,24.10
2019-05-20T08:45:09.255Z,24.10
2019-05-20T08:47:39.931Z,24.20
2019-05-20T08:50:15.887Z,24.50
2019-05-20T08:52:43.858Z,24.70
2019-05-20T08:55:14.872Z,24.90
2019-05-20T08:57:47.035Z,25.20
2019-05-20T09:00:24.203Z,25.00
2019-05-20T09:02:55.341Z,24.70
2019-05-20T09:05:28.331Z,24.60
2019-05-20T09:08:03.703Z,24.10
2019-05-20T09:10:31.094Z,24.00
2019-05-20T09:13:01.821Z,24.30
2019-05-20T09:15:32.845Z,24.30
2019-05-20T09:18:04.553Z,24.50
2019-05-20T09:20:35.213Z,24.70
2019-05-20T09:23:05.919Z,24.70
2019-05-20T09:25:36.652Z,24.70
2019-05-20T09:28:07.358Z,24.60
2019-05-20T09:30:38.617Z,24.50
2019-05-20T09:33:09.323Z,24.70
2019-05-20T09:35:40.231Z,24.80
2019-05-20T09:38:20.394Z,24.80
2019-05-20T09:40:48.432Z,24.80
2019-05-20T09:43:19.456Z,24.50
2019-05-20T09:46:05.649Z,24.40
2019-05-20T09:48:25.026Z,24.30
2019-05-20T09:50:55.533Z,24.40
2019-05-20T09:53:26.434Z,24.40
2019-05-20T09:55:57.145Z,24.30
2019-05-20T09:58:27.822Z,24.40
2019-05-20T10:00:58.591Z,24.30
2019-05-20T10:03:29.290Z,24.10
2019-05-20T10:06:00.385Z,24.20
2019-05-20T10:08:38.838Z,24.40
2019-05-20T10:11:03.604Z,24.60
2019-05-20T10:13:34.516Z,24.70
2019-05-20T10:16:05.169Z,25.00
2019-05-20T10:18:38.049Z,25.10
2019-05-20T10:21:08.249Z,25.40
2019-05-20T10:23:39.528Z,25.50
2019-05-20T10:26:10.249Z,25.40
2019-05-20T10:28:44.704Z,25.40
2019-05-20T10:31:13.611Z,25.50
2019-05-20T10:33:44.888Z,25.60
2019-05-20T10:36:15.699Z,25.60
2019-05-20T10:38:58.032Z,25.60
2019-05-20T10:41:18.789Z,25.50
2019-05-20T10:43:49.957Z,25.40
2019-05-20T10:46:20.648Z,25.50
2019-05-20T10:48:51.575Z,25.30
2019-05-20T10:51:22.230Z,25.30
2019-05-20T10:53:53.114Z,25.50
2019-05-20T10:56:23.807Z,25.50
2019-05-20T10:58:54.493Z,25.60
2019-05-20T11:01:25.732Z,25.80
2019-05-20T11:03:56.845Z,25.50
2019-05-20T11:06:27.480Z,25.30
2019-05-20T11:09:13.063Z,25.30
2019-05-20T11:11:31.431Z,25.50
2019-05-20T11:14:02.092Z,25.50
2019-05-20T11:16:32.768Z,25.50
2019-05-20T11:19:03.459Z,25.50
2019-05-20T11:21:34.182Z,25.10
2019-05-20T11:24:05.321Z,25.30
2019-05-20T11:26:35.958Z,25.60
2019-05-20T11:29:06.709Z,25.60
2019-05-20T11:31:37.366Z,25.60
2019-05-20T11:34:08.106Z,25.40
2019-05-20T11:36:39.996Z,25.40
2019-05-20T11:39:10.748Z,25.10
2019-05-20T11:41:52.843Z,24.90
2019-05-20T11:44:14.036Z,24.60
2019-05-20T11:46:44.867Z,24.50
2019-05-20T11:49:15.513Z,24.40
2019-05-20T11:51:46.230Z,24.10
2019-05-20T11:54:16.928Z,24.20
2019-05-20T11:56:47.590Z,24.20
2019-05-20T11:59:18.204Z,24.30
2019-05-20T12:01:48.996Z,24.40
2019-05-20T12:04:21.301Z,24.30
2019-05-20T12:06:52.626Z,24.40
2019-05-20T12:09:23.220Z,24.30
2019-05-20T12:11:54.388Z,24.70
2019-05-20T12:14:25.096Z,24.90
2019-05-20T12:16:56.089Z,25.20
2019-05-20T12:19:26.757Z,25.50
2019-05-20T12:21:57.465Z,25.50
2019-05-20T12:24:28.142Z,25.40
2019-05-20T12:26:59.112Z,25.30
2019-05-20T12:29:29.796Z,25.20
2019-05-20T12:32:03.448Z,24.90
2019-05-20T12:34:34.071Z,24.90
2019-05-20T12:37:04.738Z,24.90
2019-05-20T12:39:35.491Z,24.60
2019-05-20T12:42:06.336Z,24.50
2019-05-20T12:44:36.998Z,24.60
2019-05-20T12:47:07.688Z,24.50
2019-05-20T12:49:38.450Z,24.10
2019-05-20T12:52:09.222Z,24.00
2019-05-20T12:54:40.403Z,23.70
2019-05-20T12:57:11.179Z,23.30
2019-05-20T12:59:42.194Z,23.20
2019-05-20T13:02:17.073Z,23.10
2019-05-20T13:04:45.252Z,23.10
2019-05-20T13:07:16.109Z,23.20
2019-05-20T13:09:46.851Z,23.40
2019-05-20T13:12:18.421Z,23.60
2019-05-20T13:14:49.131Z,23.60
2019-05-20T13:17:19.787Z,23.60
2019-05-20T13:19:50.428Z,23.60
2019-05-20T13:22:21.128Z,23.20
2019-05-20T13:24:51.843Z,22.80
2019-05-20T13:27:22.532Z,22.50
2019-05-20T13:29:53.207Z,22.30
2019-05-20T13:32:23.865Z,22.00
2019-05-20T13:34:57.056Z,21.70
2019-05-20T13:37:27.759Z,21.40
2019-05-20T13:40:02.700Z,21.20
2019-05-20T13:42:31.026Z,21.10
2019-05-20T13:45:02.742Z,21.00
2019-05-20T13:47:33.405Z,21.00
2019-05-20T13:50:06.696Z,21.00
2019-05-20T13:52:37.522Z,20.90
2019-05-20T13:55:09.017Z,20.90
2019-05-20T13:57:40.413Z,20.80
2019-05-20T14:00:11.739Z,20.70
2019-05-20T14:02:42.906Z,20.60
2019-05-20T14:05:13.991Z,20.50
2019-05-20T14:07:44.695Z,20.30
2019-05-20T14:10:17.077Z,20.10
2019-05-20T14:12:47.807Z,20.10
2019-05-20T14:15:18.749Z,20.10
2019-05-20T14:17:49.435Z,20.10
2019-05-20T14:20:20.709Z,20.10
2019-05-20T14:22:51.553Z,20.00
2019-05-20T14:25:22.301Z,20.00
2019-05-20T14:27:53.020Z,20.00
2019-05-20T14:30:24.579Z,20.00
2019-05-20T14:32:55.824Z,20.20
2019-05-20T14:35:26.578Z,20.40
2019-05-20T14:37:57.283Z,20.80
2019-05-20T14:40:27.946Z,21.20
2019-05-20T14:42:58.779Z,21.40
2019-05-20T14:45:29.538Z,21.70
2019-05-20T14:48:01.252Z,21.80
2019-05-20T14:50:31.931Z,21.80
2019-05-20T14:53:03.450Z,21.60
2019-05-20T14:55:42.334Z,21.50
2019-05-20T14:58:06.667Z,21.30
2019-05-20T15:00:37.506Z,21.10
2019-05-20T15:03:08.408Z,21.20
2019-05-20T15:05:39.625Z,21.30
2019-05-20T15:08:13.442Z,21.40
2019-05-20T15:10:44.103Z,21.60
2019-05-20T15:13:17.157Z,22.10
2019-05-20T15:15:48.653Z,22.60
2019-05-20T15:18:19.509Z,22.80
2019-05-20T15:20:50.208Z,22.40
2019-05-20T15:23:21.175Z,22.00
2019-05-20T15:25:51.916Z,21.80
2019-05-20T15:28:22.671Z,21.80
2019-05-20T15:30:53.435Z,21.70
2019-05-20T15:33:24.190Z,21.60
2019-05-20T15:35:55.009Z,21.70
2019-05-20T15:38:25.732Z,21.80
2019-05-20T15:40:56.366Z,21.70
2019-05-20T15:43:27.078Z,21.40
2019-05-20T15:45:57.807Z,21.50
2019-05-20T15:48:28.511Z,21.50
2019-05-20T15:50:59.537Z,21.50
2019-05-20T15:53:30.308Z,21.50
2019-05-20T15:56:01.016Z,21.40
2019-05-20T15:58:31.735Z,21.30
2019-05-20T16:01:02.403Z,21.30
2019-05-20T16:03:33.159Z,21.40
2019-05-20T16:06:04.642Z,21.30
2019-05-20T16:08:35.378Z,21.30
2019-05-20T16:11:07.243Z,21.40
2019-05-20T16:13:38.113Z,21.40
2019-05-20T16:16:12.979Z,21.40
2019-05-20T16:18:42.895Z,21.40
2019-05-20T16:21:13.600Z,21.20
2019-05-20T16:23:44.344Z,21.10
2019-05-20T16:26:15.159Z,21.10
2019-05-20T16:28:45.942Z,21.00
2019-05-20T16:31:16.679Z,20.80
2019-05-20T16:33:47.466Z,20.70
2019-05-20T16:36:18.147Z,20.50
2019-05-20T16:38:48.836Z,20.50
2019-05-20T16:41:19.493Z,20.30
2019-05-20T16:43:50.133Z,20.20
2019-05-20T16:46:20.800Z,20.20
2019-05-20T16:48:51.597Z,20.20
2019-05-20T16:51:22.638Z,20.10
2019-05-20T16:53:53.463Z,20.00
2019-05-20T16:56:24.340Z,20.00
2019-05-20T16:58:55.045Z,20.00
2019-05-20T17:01:26.031Z,19.90
2019-05-20T17:03:56.747Z,19.90
2019-05-20T17:06:27.693Z,19.90
2019-05-20T17:08:58.675Z,19.80
2019-05-20T17:11:30.355Z,19.80
2019-05-20T17:14:01.302Z,19.80
2019-05-20T17:16:31.951Z,19.80
2019-05-20T17:19:02.716Z,19.80
2019-05-20T17:21:33.430Z,19.90
2019-05-20T17:24:05.268Z,19.90
2019-05-20T17:26:35.924Z,20.00
2019-05-20T17:29:06.701Z,19.90
2019-05-20T17:31:41.257Z,19.80
2019-05-20T17:34:12.555Z,19.70
2019-05-20T17:36:43.680Z,19.70
2019-05-20T17:39:14.480Z,19.70
2019-05-20T17:41:45.172Z,19.70
2019-05-20T17:44:15.838Z,19.70
2019-05-20T17:46:46.522Z,19.50
2019-05-20T17:49:17.196Z,19.50
2019-05-20T17:51:47.888Z,19.60
2019-05-20T17:54:19.089Z,19.50
2019-05-20T17:56:49.799Z,19.50
2019-05-20T17:59:20.559Z,19.40
2019-05-20T18:01:51.338Z,19.40
2019-05-20T18:04:23.672Z,19.30
2019-05-20T18:06:54.476Z,19.30
2019-05-20T18:09:27.086Z,19.10
2019-05-20T18:11:57.888Z,19.00
2019-05-20T18:14:28.769Z,19.00
2019-05-20T18:16:59.624Z,19.00
2019-05-20T18:19:30.389Z,18.90
2019-05-20T18:22:01.143Z,18.80
2019-05-20T18:24:31.865Z,18.80
2019-05-20T18:27:02.969Z,18.70
2019-05-20T18:29:33.639Z,18.70
2019-05-20T18:32:05.431Z,18.60
2019-05-20T18:34:36.175Z,18.60
2019-05-20T18:37:06.970Z,18.50
2019-05-20T18:39:38.386Z,18.50
2019-05-20T18:42:09.276Z,18.50
2019-05-20T18:44:40.104Z,18.40
2019-05-20T18:47:10.827Z,18.40
2019-05-20T18:49:41.656Z,18.30
2019-05-20T18:52:12.565Z,18.30
2019-05-20T18:54:43.527Z,18.30
2019-05-20T18:57:49.959Z,18.20
2019-05-20T19:00:21.221Z,18.20
2019-05-20T19:02:51.967Z,18.00
2019-05-20T19:05:22.664Z,18.00
2019-05-20T19:07:53.387Z,17.90
2019-05-20T19:10:24.698Z,17.80
2019-05-20T19:12:55.404Z,17.70
2019-05-20T19:15:26.223Z,17.70
2019-05-20T19:17:57.027Z,17.70
2019-05-20T19:20:27.784Z,17.70
2019-05-20T19:22:58.511Z,17.50
2019-05-20T19:25:37.489Z,17.50
2019-05-20T19:28:01.679Z,17.50
2019-05-20T19:30:32.340Z,17.40
2019-05-20T19:33:03.736Z,17.40
2019-05-20T19:35:34.453Z,17.40
2019-05-20T19:38:05.221Z,17.30
2019-05-20T19:40:35.979Z,17.30
2019-05-20T19:43:06.737Z,17.20
2019-05-20T19:45:37.614Z,17.10
2019-05-20T19:48:08.845Z,17.00
2019-05-20T19:50:39.677Z,17.00
2019-05-20T19:53:10.430Z,16.90
2019-05-20T19:55:41.151Z,16.80
2019-05-20T19:58:11.867Z,16.70
2019-05-20T20:00:43.557Z,16.60
2019-05-20T20:03:14.296Z,16.50
2019-05-20T20:05:45.018Z,16.50
2019-05-20T20:08:15.866Z,16.40
2019-05-20T20:10:46.736Z,16.60
2019-05-20T20:13:17.574Z,16.60
2019-05-20T20:15:49.639Z,16.60
2019-05-20T20:18:20.787Z,16.60
2019-05-20T20:20:51.792Z,16.50
2019-05-20T20:23:23.592Z,16.50
2019-05-20T20:25:54.523Z,16.40
2019-05-20T20:28:25.422Z,16.30
2019-05-20T20:30:56.289Z,16.00
2019-05-20T20:33:27.430Z,16.00
2019-05-20T20:35:58.442Z,16.00
2019-05-20T20:38:29.208Z,15.90
2019-05-20T20:41:00.277Z,15.90
2019-05-20T20:43:32.260Z,15.80
2019-05-20T20:46:03.402Z,15.80
2019-05-20T20:48:34.403Z,15.80
2019-05-20T20:51:05.785Z,15.90
2019-05-20T20:53:36.824Z,15.90
2019-05-20T20:56:22.706Z,15.90
2019-05-20T20:58:40.704Z,15.90
2019-05-20T21:01:11.864Z,15.80
2019-05-20T21:03:43.185Z,15.70
2019-05-20T21:06:14.042Z,15.70
2019-05-20T21:08:45.148Z,15.70
2019-05-20T21:11:16.200Z,15.70
2019-05-20T21:13:47.109Z,15.60
2019-05-20T21:16:17.877Z,15.60
2019-05-20T21:18:48.832Z,15.60
2019-05-20T21:21:19.625Z,15.50
2019-05-20T21:23:50.502Z,15.50
2019-05-20T21:26:21.259Z,15.50
2019-05-20T21:28:52.190Z,15.50
2019-05-20T21:31:23.189Z,15.50
2019-05-20T21:33:54.110Z,15.50
2019-05-20T21:36:24.835Z,15.50
2019-05-20T21:38:55.507Z,15.50
2019-05-20T21:41:27.045Z,15.40
2019-05-20T21:43:57.677Z,15.40
2019-05-20T21:46:28.928Z,15.30
2019-05-20T21:48:59.593Z,15.20
2019-05-20T21:51:31.465Z,15.10
2019-05-20T21:54:02.991Z,15.00
2019-05-20T21:56:34.291Z,14.90
2019-05-20T21:59:05.065Z,14.80
2019-05-20T22:01:35.795Z,14.60
2019-05-20T22:04:06.558Z,14.50
2019-05-20T22:06:37.345Z,14.40
2019-05-20T22:09:11.334Z,14.40
2019-05-20T22:11:41.938Z,14.30
2019-05-20T22:14:12.590Z,14.20
2019-05-20T22:16:43.238Z,14.10
2019-05-20T22:19:13.932Z,14.10
2019-05-20T22:21:53.753Z,14.00
2019-05-20T22:24:24.437Z,14.00
2019-05-20T22:26:55.104Z,13.90
2019-05-20T22:29:25.849Z,13.90
2019-05-20T22:31:56.516Z,13.80
2019-05-20T22:34:27.159Z,13.70
2019-05-20T22:36:57.921Z,13.70
2019-05-20T22:39:28.575Z,13.70
2019-05-20T22:41:59.251Z,13.70
2019-05-20T22:44:30.444Z,13.60
2019-05-20T22:47:01.086Z,13.50
2019-05-20T22:49:32.297Z,13.40
2019-05-20T22:52:02.979Z,13.40
2019-05-20T22:54:33.952Z,13.40
2019-05-20T22:57:05.405Z,13.30
2019-05-20T22:59:36.118Z,13.30
2019-05-20T23:02:06.902Z,13.20
2019-05-20T23:04:37.540Z,13.10
2019-05-20T23:07:08.227Z,13.10
2019-05-20T23:09:39.226Z,13.00
2019-05-20T23:12:10.123Z,13.00
2019-05-20T23:14:40.860Z,12.90
2019-05-20T23:17:11.562Z,12.90
2019-05-20T23:19:42.295Z,12.90
2019-05-20T23:22:12.915Z,12.80
2019-05-20T23:24:43.821Z,12.80
2019-05-20T23:27:14.471Z,12.80
2019-05-20T23:29:45.126Z,12.80
2019-05-20T23:32:15.785Z,12.80
2019-05-20T23:34:46.490Z,12.70
2019-05-20T23:37:17.218Z,12.80
2019-05-20T23:39:47.954Z,12.80
2019-05-20T23:42:18.538Z,12.80
2019-05-20T23:44:49.268Z,12.90
2019-05-20T23:47:19.919Z,12.80
2019-05-20T23:49:50.588Z,12.80
2019-05-20T23:52:21.279Z,12.80
2019-05-20T23:54:51.928Z,12.70
2019-05-20T23:57:22.607Z,12.70
2019-05-20T23:59:53.864Z,12.60
